sensor_id;sensor_type;location;lat;lon;timestamp;P1;durP1;ratioP1;P2;durP2;ratioP2
36001;SDS011;22070;50.922;5.430;2022-12-20T00:00:26;1.83;;;1.05;;
36001;SDS011;22070;50.922;5.430;2022-12-20T00:02:52;3.33;;;1.40;;
36001;SDS011;22070;50.922;5.430;2022-12-20T00:05:17;1.35;;;0.95;;
36001;SDS011;22070;50.922;5.430;2022-12-20T00:07:43;1.33;;;1.23;;
36001;SDS011;22070;50.922;5.430;2022-12-20T00:10:08;2.55;;;1.05;;
36001;SDS011;22070;50.922;5.430;2022-12-20T00:12:34;2.13;;;1.00;;
36001;SDS011;22070;50.922;5.430;2022-12-20T00:15:00;3.88;;;1.50;;
36001;SDS011;22070;50.922;5.430;2022-12-20T00:17:26;2.27;;;1.43;;
36001;SDS011;22070;50.922;5.430;2022-12-20T00:19:51;2.53;;;1.25;;
36001;SDS011;22070;50.922;5.430;2022-12-20T00:22:17;1.60;;;1.13;;
36001;SDS011;22070;50.922;5.430;2022-12-20T00:24:42;1.40;;;1.10;;
36001;SDS011;22070;50.922;5.430;2022-12-20T00:27:08;2.35;;;1.27;;
36001;SDS011;22070;50.922;5.430;2022-12-20T00:29:34;3.13;;;1.50;;
36001;SDS011;22070;50.922;5.430;2022-12-20T00:31:59;2.83;;;1.50;;
36001;SDS011;22070;50.922;5.430;2022-12-20T00:34:25;2.00;;;1.25;;
36001;SDS011;22070;50.922;5.430;2022-12-20T00:36:51;2.10;;;1.10;;
36001;SDS011;22070;50.922;5.430;2022-12-20T00:39:16;2.47;;;1.30;;
36001;SDS011;22070;50.922;5.430;2022-12-20T00:41:42;2.00;;;1.23;;
36001;SDS011;22070;50.922;5.430;2022-12-20T00:44:07;4.30;;;1.30;;
36001;SDS011;22070;50.922;5.430;2022-12-20T00:46:33;2.65;;;1.25;;
36001;SDS011;22070;50.922;5.430;2022-12-20T00:48:59;2.50;;;1.45;;
36001;SDS011;22070;50.922;5.430;2022-12-20T00:51:26;2.08;;;1.00;;
36001;SDS011;22070;50.922;5.430;2022-12-20T00:53:54;2.25;;;0.98;;
36001;SDS011;22070;50.922;5.430;2022-12-20T00:56:20;1.60;;;1.23;;
36001;SDS011;22070;50.922;5.430;2022-12-20T00:58:46;1.73;;;1.30;;
36001;SDS011;22070;50.922;5.430;2022-12-20T01:01:20;1.48;;;1.35;;
36001;SDS011;22070;50.922;5.430;2022-12-20T01:03:48;2.63;;;1.35;;
36001;SDS011;22070;50.922;5.430;2022-12-20T01:06:15;2.35;;;1.20;;
36001;SDS011;22070;50.922;5.430;2022-12-20T01:08:42;3.15;;;1.30;;
36001;SDS011;22070;50.922;5.430;2022-12-20T01:11:10;2.05;;;1.20;;
36001;SDS011;22070;50.922;5.430;2022-12-20T01:13:38;1.67;;;1.20;;
36001;SDS011;22070;50.922;5.430;2022-12-20T01:16:06;1.85;;;1.27;;
36001;SDS011;22070;50.922;5.430;2022-12-20T01:18:33;2.60;;;1.30;;
36001;SDS011;22070;50.922;5.430;2022-12-20T01:21:10;4.63;;;1.48;;
36001;SDS011;22070;50.922;5.430;2022-12-20T01:23:37;2.13;;;1.30;;
36001;SDS011;22070;50.922;5.430;2022-12-20T01:28:34;2.92;;;1.30;;
36001;SDS011;22070;50.922;5.430;2022-12-20T01:31:00;3.67;;;1.60;;
36001;SDS011;22070;50.922;5.430;2022-12-20T01:33:26;3.05;;;1.45;;
36001;SDS011;22070;50.922;5.430;2022-12-20T01:35:56;3.28;;;1.83;;
36001;SDS011;22070;50.922;5.430;2022-12-20T01:38:22;1.92;;;1.38;;
36001;SDS011;22070;50.922;5.430;2022-12-20T01:40:49;2.90;;;1.43;;
36001;SDS011;22070;50.922;5.430;2022-12-20T01:43:15;1.55;;;1.40;;
36001;SDS011;22070;50.922;5.430;2022-12-20T01:45:43;1.92;;;1.38;;
36001;SDS011;22070;50.922;5.430;2022-12-20T01:48:08;3.38;;;1.55;;
36001;SDS011;22070;50.922;5.430;2022-12-20T01:50:35;2.00;;;1.27;;
36001;SDS011;22070;50.922;5.430;2022-12-20T01:53:01;3.03;;;1.37;;
36001;SDS011;22070;50.922;5.430;2022-12-20T01:55:29;1.67;;;1.58;;
36001;SDS011;22070;50.922;5.430;2022-12-20T01:58:00;2.50;;;1.60;;
36001;SDS011;22070;50.922;5.430;2022-12-20T02:00:29;3.28;;;1.50;;
36001;SDS011;22070;50.922;5.430;2022-12-20T02:02:55;2.20;;;1.52;;
36001;SDS011;22070;50.922;5.430;2022-12-20T02:05:24;2.83;;;1.52;;
36001;SDS011;22070;50.922;5.430;2022-12-20T02:07:51;2.00;;;1.42;;
36001;SDS011;22070;50.922;5.430;2022-12-20T02:10:19;2.13;;;1.70;;
36001;SDS011;22070;50.922;5.430;2022-12-20T02:12:48;2.80;;;1.60;;
36001;SDS011;22070;50.922;5.430;2022-12-20T02:18:12;2.53;;;1.63;;
36001;SDS011;22070;50.922;5.430;2022-12-20T02:32:08;5.55;;;1.80;;
36001;SDS011;22070;50.922;5.430;2022-12-20T02:34:57;2.28;;;1.58;;
36001;SDS011;22070;50.922;5.430;2022-12-20T02:37:22;3.78;;;2.10;;
36001;SDS011;22070;50.922;5.430;2022-12-20T02:39:48;2.85;;;1.20;;
36001;SDS011;22070;50.922;5.430;2022-12-20T02:42:15;2.72;;;1.63;;
36001;SDS011;22070;50.922;5.430;2022-12-20T02:44:46;3.33;;;1.52;;
36001;SDS011;22070;50.922;5.430;2022-12-20T02:47:37;3.35;;;1.88;;
36001;SDS011;22070;50.922;5.430;2022-12-20T02:50:07;3.28;;;1.60;;
36001;SDS011;22070;50.922;5.430;2022-12-20T02:52:35;3.97;;;1.55;;
36001;SDS011;22070;50.922;5.430;2022-12-20T02:55:02;5.43;;;2.00;;
36001;SDS011;22070;50.922;5.430;2022-12-20T03:00:04;3.83;;;1.58;;
36001;SDS011;22070;50.922;5.430;2022-12-20T03:02:38;2.97;;;1.70;;
36001;SDS011;22070;50.922;5.430;2022-12-20T03:07:50;2.80;;;1.50;;
36001;SDS011;22070;50.922;5.430;2022-12-20T03:10:17;1.70;;;1.40;;
36001;SDS011;22070;50.922;5.430;2022-12-20T03:12:44;4.40;;;1.83;;
36001;SDS011;22070;50.922;5.430;2022-12-20T03:15:10;1.90;;;1.80;;
36001;SDS011;22070;50.922;5.430;2022-12-20T03:17:36;2.17;;;1.40;;
36001;SDS011;22070;50.922;5.430;2022-12-20T03:20:02;2.45;;;1.55;;
36001;SDS011;22070;50.922;5.430;2022-12-20T03:22:30;3.90;;;1.70;;
36001;SDS011;22070;50.922;5.430;2022-12-20T03:24:57;4.63;;;1.90;;
36001;SDS011;22070;50.922;5.430;2022-12-20T03:27:23;3.05;;;1.55;;
36001;SDS011;22070;50.922;5.430;2022-12-20T03:29:51;3.72;;;1.80;;
36001;SDS011;22070;50.922;5.430;2022-12-20T03:32:16;3.40;;;1.80;;
36001;SDS011;22070;50.922;5.430;2022-12-20T03:34:42;3.03;;;1.63;;
36001;SDS011;22070;50.922;5.430;2022-12-20T03:37:08;2.88;;;1.38;;
36001;SDS011;22070;50.922;5.430;2022-12-20T03:39:34;3.42;;;1.60;;
36001;SDS011;22070;50.922;5.430;2022-12-20T03:41:59;3.67;;;1.50;;
36001;SDS011;22070;50.922;5.430;2022-12-20T03:44:25;4.15;;;1.45;;
36001;SDS011;22070;50.922;5.430;2022-12-20T03:46:51;3.22;;;1.52;;
36001;SDS011;22070;50.922;5.430;2022-12-20T03:49:16;1.52;;;1.27;;
36001;SDS011;22070;50.922;5.430;2022-12-20T03:51:42;3.47;;;1.50;;
36001;SDS011;22070;50.922;5.430;2022-12-20T03:54:08;2.42;;;1.20;;
36001;SDS011;22070;50.922;5.430;2022-12-20T03:56:34;10.93;;;2.20;;
36001;SDS011;22070;50.922;5.430;2022-12-20T03:58:59;1.70;;;1.40;;
36001;SDS011;22070;50.922;5.430;2022-12-20T04:01:26;2.28;;;1.55;;
36001;SDS011;22070;50.922;5.430;2022-12-20T04:03:53;1.88;;;1.45;;
36001;SDS011;22070;50.922;5.430;2022-12-20T04:06:19;5.03;;;1.60;;
36001;SDS011;22070;50.922;5.430;2022-12-20T04:08:46;1.85;;;1.42;;
36001;SDS011;22070;50.922;5.430;2022-12-20T04:11:12;4.18;;;1.50;;
36001;SDS011;22070;50.922;5.430;2022-12-20T04:13:41;1.75;;;1.50;;
36001;SDS011;22070;50.922;5.430;2022-12-20T04:16:11;4.43;;;1.60;;
36001;SDS011;22070;50.922;5.430;2022-12-20T04:18:38;4.50;;;1.70;;
36001;SDS011;22070;50.922;5.430;2022-12-20T04:21:03;3.30;;;1.52;;
36001;SDS011;22070;50.922;5.430;2022-12-20T04:23:31;4.85;;;2.03;;
36001;SDS011;22070;50.922;5.430;2022-12-20T04:26:01;4.28;;;1.80;;
36001;SDS011;22070;50.922;5.430;2022-12-20T04:28:28;2.80;;;1.77;;
36001;SDS011;22070;50.922;5.430;2022-12-20T04:30:54;3.78;;;1.63;;
36001;SDS011;22070;50.922;5.430;2022-12-20T04:33:20;4.63;;;1.60;;
36001;SDS011;22070;50.922;5.430;2022-12-20T04:38:12;3.90;;;1.43;;
36001;SDS011;22070;50.922;5.430;2022-12-20T04:40:39;2.60;;;1.45;;
36001;SDS011;22070;50.922;5.430;2022-12-20T04:43:04;5.85;;;1.50;;
36001;SDS011;22070;50.922;5.430;2022-12-20T04:45:30;3.78;;;1.45;;
36001;SDS011;22070;50.922;5.430;2022-12-20T04:47:56;5.88;;;1.52;;
36001;SDS011;22070;50.922;5.430;2022-12-20T04:50:21;1.70;;;1.17;;
36001;SDS011;22070;50.922;5.430;2022-12-20T04:52:47;1.83;;;1.25;;
36001;SDS011;22070;50.922;5.430;2022-12-20T04:55:35;2.65;;;1.30;;
36001;SDS011;22070;50.922;5.430;2022-12-20T04:58:04;1.42;;;1.30;;
36001;SDS011;22070;50.922;5.430;2022-12-20T05:00:31;3.75;;;1.58;;
36001;SDS011;22070;50.922;5.430;2022-12-20T05:02:57;3.40;;;1.60;;
36001;SDS011;22070;50.922;5.430;2022-12-20T05:05:23;4.15;;;1.48;;
36001;SDS011;22070;50.922;5.430;2022-12-20T05:07:49;2.13;;;1.48;;
36001;SDS011;22070;50.922;5.430;2022-12-20T05:10:15;1.38;;;1.05;;
36001;SDS011;22070;50.922;5.430;2022-12-20T05:12:41;2.13;;;1.20;;
36001;SDS011;22070;50.922;5.430;2022-12-20T05:15:07;2.85;;;1.10;;
36001;SDS011;22070;50.922;5.430;2022-12-20T05:17:33;3.35;;;1.30;;
36001;SDS011;22070;50.922;5.430;2022-12-20T05:19:59;1.83;;;1.20;;
36001;SDS011;22070;50.922;5.430;2022-12-20T05:22:25;5.45;;;1.80;;
36001;SDS011;22070;50.922;5.430;2022-12-20T05:25:10;4.07;;;1.20;;
36001;SDS011;22070;50.922;5.430;2022-12-20T05:27:54;2.28;;;1.17;;
36001;SDS011;22070;50.922;5.430;2022-12-20T05:30:20;1.67;;;1.40;;
36001;SDS011;22070;50.922;5.430;2022-12-20T05:32:46;1.48;;;1.05;;
36001;SDS011;22070;50.922;5.430;2022-12-20T05:35:12;2.47;;;1.10;;
36001;SDS011;22070;50.922;5.430;2022-12-20T05:37:37;7.00;;;1.33;;
36001;SDS011;22070;50.922;5.430;2022-12-20T05:40:04;1.88;;;1.10;;
36001;SDS011;22070;50.922;5.430;2022-12-20T05:42:31;3.60;;;1.00;;
36001;SDS011;22070;50.922;5.430;2022-12-20T05:44:57;4.07;;;1.40;;
36001;SDS011;22070;50.922;5.430;2022-12-20T05:47:22;1.88;;;1.15;;
36001;SDS011;22070;50.922;5.430;2022-12-20T05:49:48;2.10;;;1.10;;
36001;SDS011;22070;50.922;5.430;2022-12-20T05:52:14;2.35;;;1.20;;
36001;SDS011;22070;50.922;5.430;2022-12-20T05:54:40;5.95;;;1.15;;
36001;SDS011;22070;50.922;5.430;2022-12-20T05:57:05;2.78;;;1.20;;
36001;SDS011;22070;50.922;5.430;2022-12-20T05:59:31;2.10;;;1.08;;
36001;SDS011;22070;50.922;5.430;2022-12-20T06:01:57;1.85;;;1.05;;
36001;SDS011;22070;50.922;5.430;2022-12-20T06:04:22;2.15;;;1.10;;
36001;SDS011;22070;50.922;5.430;2022-12-20T06:06:48;4.07;;;1.27;;
36001;SDS011;22070;50.922;5.430;2022-12-20T06:09:14;2.03;;;1.30;;
36001;SDS011;22070;50.922;5.430;2022-12-20T06:11:39;2.70;;;1.08;;
36001;SDS011;22070;50.922;5.430;2022-12-20T06:14:05;2.08;;;1.10;;
36001;SDS011;22070;50.922;5.430;2022-12-20T06:16:30;5.03;;;1.20;;
36001;SDS011;22070;50.922;5.430;2022-12-20T06:18:56;2.30;;;1.08;;
36001;SDS011;22070;50.922;5.430;2022-12-20T06:21:22;2.30;;;1.25;;
36001;SDS011;22070;50.922;5.430;2022-12-20T06:23:47;2.58;;;1.10;;
36001;SDS011;22070;50.922;5.430;2022-12-20T06:26:13;3.30;;;1.15;;
36001;SDS011;22070;50.922;5.430;2022-12-20T06:28:39;3.35;;;0.93;;
36001;SDS011;22070;50.922;5.430;2022-12-20T06:31:07;2.70;;;1.33;;
36001;SDS011;22070;50.922;5.430;2022-12-20T06:33:34;1.70;;;1.30;;
36001;SDS011;22070;50.922;5.430;2022-12-20T06:36:00;5.65;;;1.60;;
36001;SDS011;22070;50.922;5.430;2022-12-20T06:38:26;1.65;;;1.00;;
36001;SDS011;22070;50.922;5.430;2022-12-20T06:40:52;3.08;;;1.48;;
36001;SDS011;22070;50.922;5.430;2022-12-20T06:43:18;3.92;;;1.52;;
36001;SDS011;22070;50.922;5.430;2022-12-20T06:45:44;1.63;;;0.98;;
36001;SDS011;22070;50.922;5.430;2022-12-20T06:48:10;3.90;;;1.13;;
36001;SDS011;22070;50.922;5.430;2022-12-20T06:50:36;2.90;;;1.05;;
36001;SDS011;22070;50.922;5.430;2022-12-20T06:53:03;1.90;;;1.20;;
36001;SDS011;22070;50.922;5.430;2022-12-20T06:55:29;2.88;;;0.95;;
36001;SDS011;22070;50.922;5.430;2022-12-20T06:57:54;2.75;;;1.38;;
36001;SDS011;22070;50.922;5.430;2022-12-20T07:00:20;2.72;;;1.10;;
36001;SDS011;22070;50.922;5.430;2022-12-20T07:02:46;2.33;;;1.42;;
36001;SDS011;22070;50.922;5.430;2022-12-20T07:05:12;2.50;;;1.13;;
36001;SDS011;22070;50.922;5.430;2022-12-20T07:07:38;3.97;;;1.45;;
36001;SDS011;22070;50.922;5.430;2022-12-20T07:10:04;2.08;;;1.00;;
36001;SDS011;22070;50.922;5.430;2022-12-20T07:12:30;3.88;;;1.65;;
36001;SDS011;22070;50.922;5.430;2022-12-20T07:14:57;2.45;;;1.02;;
36001;SDS011;22070;50.922;5.430;2022-12-20T07:17:23;2.43;;;1.07;;
36001;SDS011;22070;50.922;5.430;2022-12-20T07:19:49;1.85;;;1.08;;
36001;SDS011;22070;50.922;5.430;2022-12-20T07:22:15;6.10;;;1.10;;
36001;SDS011;22070;50.922;5.430;2022-12-20T07:24:41;1.95;;;1.20;;
36001;SDS011;22070;50.922;5.430;2022-12-20T07:27:06;5.55;;;1.13;;
36001;SDS011;22070;50.922;5.430;2022-12-20T07:29:34;1.25;;;1.13;;
36001;SDS011;22070;50.922;5.430;2022-12-20T07:32:00;2.90;;;1.30;;
36001;SDS011;22070;50.922;5.430;2022-12-20T07:34:26;2.03;;;1.08;;
36001;SDS011;22070;50.922;5.430;2022-12-20T07:36:52;5.95;;;1.35;;
36001;SDS011;22070;50.922;5.430;2022-12-20T07:39:17;3.20;;;0.80;;
36001;SDS011;22070;50.922;5.430;2022-12-20T07:41:43;3.28;;;1.10;;
36001;SDS011;22070;50.922;5.430;2022-12-20T07:44:09;1.73;;;1.10;;
36001;SDS011;22070;50.922;5.430;2022-12-20T07:46:34;2.10;;;1.10;;
36001;SDS011;22070;50.922;5.430;2022-12-20T07:49:00;2.35;;;1.75;;
36001;SDS011;22070;50.922;5.430;2022-12-20T07:51:36;2.70;;;1.27;;
36001;SDS011;22070;50.922;5.430;2022-12-20T07:54:05;4.68;;;1.33;;
36001;SDS011;22070;50.922;5.430;2022-12-20T07:56:37;3.13;;;1.55;;
36001;SDS011;22070;50.922;5.430;2022-12-20T07:59:07;2.63;;;1.55;;
36001;SDS011;22070;50.922;5.430;2022-12-20T08:01:35;3.63;;;1.70;;
36001;SDS011;22070;50.922;5.430;2022-12-20T08:04:04;4.43;;;1.20;;
36001;SDS011;22070;50.922;5.430;2022-12-20T08:06:38;2.97;;;1.20;;
36001;SDS011;22070;50.922;5.430;2022-12-20T08:09:05;2.85;;;1.02;;
36001;SDS011;22070;50.922;5.430;2022-12-20T08:11:32;1.83;;;1.00;;
36001;SDS011;22070;50.922;5.430;2022-12-20T08:14:00;1.27;;;0.95;;
36001;SDS011;22070;50.922;5.430;2022-12-20T08:16:26;1.02;;;0.70;;
36001;SDS011;22070;50.922;5.430;2022-12-20T08:18:51;4.10;;;0.83;;
36001;SDS011;22070;50.922;5.430;2022-12-20T08:21:17;2.63;;;0.93;;
36001;SDS011;22070;50.922;5.430;2022-12-20T08:23:43;2.55;;;1.08;;
36001;SDS011;22070;50.922;5.430;2022-12-20T08:26:08;2.75;;;1.05;;
36001;SDS011;22070;50.922;5.430;2022-12-20T08:28:34;1.38;;;0.88;;
36001;SDS011;22070;50.922;5.430;2022-12-20T08:31:00;2.25;;;1.00;;
36001;SDS011;22070;50.922;5.430;2022-12-20T08:33:31;1.20;;;1.05;;
36001;SDS011;22070;50.922;5.430;2022-12-20T08:36:02;1.85;;;0.88;;
36001;SDS011;22070;50.922;5.430;2022-12-20T08:38:29;0.90;;;0.90;;
36001;SDS011;22070;50.922;5.430;2022-12-20T08:40:55;1.83;;;1.20;;
36001;SDS011;22070;50.922;5.430;2022-12-20T08:43:32;1.00;;;0.80;;
36001;SDS011;22070;50.922;5.430;2022-12-20T08:45:58;2.63;;;1.08;;
36001;SDS011;22070;50.922;5.430;2022-12-20T08:48:25;2.33;;;0.90;;
36001;SDS011;22070;50.922;5.430;2022-12-20T08:50:57;2.40;;;1.05;;
36001;SDS011;22070;50.922;5.430;2022-12-20T08:53:25;2.25;;;0.90;;
36001;SDS011;22070;50.922;5.430;2022-12-20T08:55:51;1.00;;;0.90;;
36001;SDS011;22070;50.922;5.430;2022-12-20T08:58:16;4.28;;;1.45;;
36001;SDS011;22070;50.922;5.430;2022-12-20T09:00:42;3.97;;;1.17;;
36001;SDS011;22070;50.922;5.430;2022-12-20T09:03:08;2.45;;;0.98;;
36001;SDS011;22070;50.922;5.430;2022-12-20T09:05:35;3.28;;;1.02;;
36001;SDS011;22070;50.922;5.430;2022-12-20T09:08:07;3.72;;;1.00;;
36001;SDS011;22070;50.922;5.430;2022-12-20T09:10:32;5.60;;;2.72;;
36001;SDS011;22070;50.922;5.430;2022-12-20T09:12:58;4.60;;;1.17;;
36001;SDS011;22070;50.922;5.430;2022-12-20T09:15:23;3.63;;;1.02;;
36001;SDS011;22070;50.922;5.430;2022-12-20T09:17:51;1.48;;;0.90;;
36001;SDS011;22070;50.922;5.430;2022-12-20T09:20:17;1.58;;;1.05;;
36001;SDS011;22070;50.922;5.430;2022-12-20T09:22:43;0.90;;;0.90;;
36001;SDS011;22070;50.922;5.430;2022-12-20T09:25:09;3.75;;;1.00;;
36001;SDS011;22070;50.922;5.430;2022-12-20T09:27:34;2.27;;;1.30;;
36001;SDS011;22070;50.922;5.430;2022-12-20T09:30:00;1.27;;;1.05;;
36001;SDS011;22070;50.922;5.430;2022-12-20T09:32:25;1.75;;;1.13;;
36001;SDS011;22070;50.922;5.430;2022-12-20T09:34:51;3.73;;;1.10;;
36001;SDS011;22070;50.922;5.430;2022-12-20T09:37:17;2.67;;;0.93;;
36001;SDS011;22070;50.922;5.430;2022-12-20T09:39:42;2.50;;;1.20;;
36001;SDS011;22070;50.922;5.430;2022-12-20T09:42:08;2.42;;;1.08;;
36001;SDS011;22070;50.922;5.430;2022-12-20T09:44:35;3.63;;;1.17;;
36001;SDS011;22070;50.922;5.430;2022-12-20T09:47:05;2.63;;;1.23;;
36001;SDS011;22070;50.922;5.430;2022-12-20T09:49:40;5.95;;;1.60;;
36001;SDS011;22070;50.922;5.430;2022-12-20T09:57:51;2.25;;;0.95;;
36001;SDS011;22070;50.922;5.430;2022-12-20T10:00:47;3.40;;;1.25;;
36001;SDS011;22070;50.922;5.430;2022-12-20T10:03:24;3.65;;;1.27;;
36001;SDS011;22070;50.922;5.430;2022-12-20T10:05:54;2.53;;;1.27;;
36001;SDS011;22070;50.922;5.430;2022-12-20T10:16:16;4.53;;;2.05;;
36001;SDS011;22070;50.922;5.430;2022-12-20T10:19:14;3.47;;;1.00;;
36001;SDS011;22070;50.922;5.430;2022-12-20T10:24:38;2.35;;;1.45;;
36001;SDS011;22070;50.922;5.430;2022-12-20T10:27:12;4.75;;;1.40;;
36001;SDS011;22070;50.922;5.430;2022-12-20T10:29:40;0.93;;;0.93;;
36001;SDS011;22070;50.922;5.430;2022-12-20T10:32:10;2.15;;;1.33;;
36001;SDS011;22070;50.922;5.430;2022-12-20T10:34:39;2.80;;;1.13;;
36001;SDS011;22070;50.922;5.430;2022-12-20T10:37:17;2.38;;;1.45;;
36001;SDS011;22070;50.922;5.430;2022-12-20T10:39:43;1.77;;;1.17;;
36001;SDS011;22070;50.922;5.430;2022-12-20T10:47:44;2.35;;;1.20;;
36001;SDS011;22070;50.922;5.430;2022-12-20T10:50:15;2.70;;;1.05;;
36001;SDS011;22070;50.922;5.430;2022-12-20T10:53:01;1.88;;;1.30;;
36001;SDS011;22070;50.922;5.430;2022-12-20T10:58:03;2.27;;;1.00;;
36001;SDS011;22070;50.922;5.430;2022-12-20T11:00:49;3.45;;;1.35;;
36001;SDS011;22070;50.922;5.430;2022-12-20T11:03:17;2.47;;;1.17;;
36001;SDS011;22070;50.922;5.430;2022-12-20T11:05:54;2.80;;;1.30;;
36001;SDS011;22070;50.922;5.430;2022-12-20T11:08:23;2.83;;;1.33;;
36001;SDS011;22070;50.922;5.430;2022-12-20T11:13:33;2.92;;;1.27;;
36001;SDS011;22070;50.922;5.430;2022-12-20T11:15:59;3.42;;;1.50;;
36001;SDS011;22070;50.922;5.430;2022-12-20T11:18:30;2.58;;;1.42;;
36001;SDS011;22070;50.922;5.430;2022-12-20T11:23:44;7.63;;;1.40;;
36001;SDS011;22070;50.922;5.430;2022-12-20T11:37:29;5.38;;;1.40;;
36001;SDS011;22070;50.922;5.430;2022-12-20T11:51:03;3.83;;;1.65;;
36001;SDS011;22070;50.922;5.430;2022-12-20T11:56:43;4.00;;;2.13;;
36001;SDS011;22070;50.922;5.430;2022-12-20T12:01:58;2.45;;;1.77;;
36001;SDS011;22070;50.922;5.430;2022-12-20T12:04:38;5.18;;;1.95;;
36001;SDS011;22070;50.922;5.430;2022-12-20T12:07:30;4.78;;;1.55;;
36001;SDS011;22070;50.922;5.430;2022-12-20T12:10:01;5.75;;;2.03;;
36001;SDS011;22070;50.922;5.430;2022-12-20T12:12:44;2.85;;;1.60;;
36001;SDS011;22070;50.922;5.430;2022-12-20T12:18:10;4.07;;;1.52;;
36001;SDS011;22070;50.922;5.430;2022-12-20T12:20:54;6.30;;;1.60;;
36001;SDS011;22070;50.922;5.430;2022-12-20T12:23:32;4.78;;;2.25;;
36001;SDS011;22070;50.922;5.430;2022-12-20T12:29:12;4.45;;;2.03;;
36001;SDS011;22070;50.922;5.430;2022-12-20T12:31:43;5.75;;;1.60;;
36001;SDS011;22070;50.922;5.430;2022-12-20T12:45:33;4.53;;;1.80;;
36001;SDS011;22070;50.922;5.430;2022-12-20T12:51:07;4.68;;;1.50;;
36001;SDS011;22070;50.922;5.430;2022-12-20T12:53:35;2.55;;;1.90;;
36001;SDS011;22070;50.922;5.430;2022-12-20T13:11:53;4.35;;;1.80;;
36001;SDS011;22070;50.922;5.430;2022-12-20T13:19:37;3.35;;;1.83;;
36001;SDS011;22070;50.922;5.430;2022-12-20T13:27:21;4.25;;;2.10;;
36001;SDS011;22070;50.922;5.430;2022-12-20T13:29:53;7.00;;;2.15;;
36001;SDS011;22070;50.922;5.430;2022-12-20T13:40:44;3.40;;;2.10;;
36001;SDS011;22070;50.922;5.430;2022-12-20T13:43:33;3.15;;;2.00;;
36001;SDS011;22070;50.922;5.430;2022-12-20T13:51:16;2.95;;;2.20;;
36001;SDS011;22070;50.922;5.430;2022-12-20T13:54:02;8.98;;;2.78;;
36001;SDS011;22070;50.922;5.430;2022-12-20T13:56:32;4.97;;;2.42;;
36001;SDS011;22070;50.922;5.430;2022-12-20T13:59:02;5.25;;;2.03;;
36001;SDS011;22070;50.922;5.430;2022-12-20T14:01:30;5.47;;;2.17;;
36001;SDS011;22070;50.922;5.430;2022-12-20T14:04:01;3.90;;;2.00;;
36001;SDS011;22070;50.922;5.430;2022-12-20T14:06:31;4.25;;;2.30;;
36001;SDS011;22070;50.922;5.430;2022-12-20T14:08:57;5.13;;;2.53;;
36001;SDS011;22070;50.922;5.430;2022-12-20T14:11:24;6.35;;;2.33;;
36001;SDS011;22070;50.922;5.430;2022-12-20T14:13:57;9.60;;;2.45;;
36001;SDS011;22070;50.922;5.430;2022-12-20T14:16:25;5.13;;;2.13;;
36001;SDS011;22070;50.922;5.430;2022-12-20T14:21:22;6.05;;;1.98;;
36001;SDS011;22070;50.922;5.430;2022-12-20T14:26:29;3.72;;;1.90;;
36001;SDS011;22070;50.922;5.430;2022-12-20T14:29:03;4.70;;;2.00;;
36001;SDS011;22070;50.922;5.430;2022-12-20T14:31:43;4.05;;;2.03;;
36001;SDS011;22070;50.922;5.430;2022-12-20T14:39:24;5.97;;;2.13;;
36001;SDS011;22070;50.922;5.430;2022-12-20T14:42:02;5.03;;;2.30;;
36001;SDS011;22070;50.922;5.430;2022-12-20T14:44:37;3.88;;;2.40;;
36001;SDS011;22070;50.922;5.430;2022-12-20T14:47:10;4.83;;;2.27;;
36001;SDS011;22070;50.922;5.430;2022-12-20T14:49:46;7.85;;;2.28;;
36001;SDS011;22070;50.922;5.430;2022-12-20T14:52:19;7.95;;;2.30;;
36001;SDS011;22070;50.922;5.430;2022-12-20T14:57:25;6.22;;;2.30;;
36001;SDS011;22070;50.922;5.430;2022-12-20T14:59:56;4.00;;;1.80;;
36001;SDS011;22070;50.922;5.430;2022-12-20T15:02:45;7.07;;;2.47;;
36001;SDS011;22070;50.922;5.430;2022-12-20T15:13:44;3.58;;;1.90;;
36001;SDS011;22070;50.922;5.430;2022-12-20T15:16:29;5.32;;;2.13;;
36001;SDS011;22070;50.922;5.430;2022-12-20T15:18:59;6.35;;;2.00;;
36001;SDS011;22070;50.922;5.430;2022-12-20T15:21:33;2.78;;;1.90;;
36001;SDS011;22070;50.922;5.430;2022-12-20T15:24:02;3.38;;;1.70;;
36001;SDS011;22070;50.922;5.430;2022-12-20T15:26:32;4.90;;;2.13;;
36001;SDS011;22070;50.922;5.430;2022-12-20T15:28:58;5.13;;;2.10;;
36001;SDS011;22070;50.922;5.430;2022-12-20T15:31:24;6.33;;;2.40;;
36001;SDS011;22070;50.922;5.430;2022-12-20T15:33:51;2.63;;;1.95;;
36001;SDS011;22070;50.922;5.430;2022-12-20T15:38:45;2.75;;;1.92;;
36001;SDS011;22070;50.922;5.430;2022-12-20T15:41:13;5.17;;;2.20;;
36001;SDS011;22070;50.922;5.430;2022-12-20T15:43:54;4.05;;;2.22;;
36001;SDS011;22070;50.922;5.430;2022-12-20T15:46:44;5.57;;;2.25;;
36001;SDS011;22070;50.922;5.430;2022-12-20T15:49:12;5.78;;;2.40;;
36001;SDS011;22070;50.922;5.430;2022-12-20T15:51:49;4.20;;;2.30;;
36001;SDS011;22070;50.922;5.430;2022-12-20T15:54:29;4.32;;;2.35;;
36001;SDS011;22070;50.922;5.430;2022-12-20T15:57:00;6.18;;;2.28;;
36001;SDS011;22070;50.922;5.430;2022-12-20T15:59:28;6.07;;;2.33;;
36001;SDS011;22070;50.922;5.430;2022-12-20T16:01:54;4.85;;;2.45;;
36001;SDS011;22070;50.922;5.430;2022-12-20T16:04:21;7.18;;;2.80;;
36001;SDS011;22070;50.922;5.430;2022-12-20T16:06:47;2.92;;;2.25;;
36001;SDS011;22070;50.922;5.430;2022-12-20T16:09:15;14.82;;;2.58;;
36001;SDS011;22070;50.922;5.430;2022-12-20T16:14:14;8.30;;;2.60;;
36001;SDS011;22070;50.922;5.430;2022-12-20T16:16:41;6.13;;;2.38;;
36001;SDS011;22070;50.922;5.430;2022-12-20T16:19:08;4.30;;;2.28;;
36001;SDS011;22070;50.922;5.430;2022-12-20T16:24:05;5.05;;;2.20;;
36001;SDS011;22070;50.922;5.430;2022-12-20T16:26:34;5.75;;;2.20;;
36001;SDS011;22070;50.922;5.430;2022-12-20T16:29:00;6.43;;;2.53;;
36001;SDS011;22070;50.922;5.430;2022-12-20T16:33:55;5.38;;;2.72;;
36001;SDS011;22070;50.922;5.430;2022-12-20T16:36:22;5.32;;;2.65;;
36001;SDS011;22070;50.922;5.430;2022-12-20T16:38:49;3.95;;;2.10;;
36001;SDS011;22070;50.922;5.430;2022-12-20T16:43:42;9.57;;;3.30;;
36001;SDS011;22070;50.922;5.430;2022-12-20T16:46:10;7.05;;;3.00;;
36001;SDS011;22070;50.922;5.430;2022-12-20T16:48:46;6.03;;;3.05;;
36001;SDS011;22070;50.922;5.430;2022-12-20T16:53:56;5.00;;;2.97;;
36001;SDS011;22070;50.922;5.430;2022-12-20T16:56:26;3.92;;;2.90;;
36001;SDS011;22070;50.922;5.430;2022-12-20T16:58:52;8.55;;;2.97;;
36001;SDS011;22070;50.922;5.430;2022-12-20T17:01:22;7.25;;;2.95;;
36001;SDS011;22070;50.922;5.430;2022-12-20T17:03:50;7.45;;;2.75;;
36001;SDS011;22070;50.922;5.430;2022-12-20T17:06:17;7.55;;;3.03;;
36001;SDS011;22070;50.922;5.430;2022-12-20T17:08:43;7.72;;;3.25;;
36001;SDS011;22070;50.922;5.430;2022-12-20T17:13:35;5.43;;;2.77;;
36001;SDS011;22070;50.922;5.430;2022-12-20T17:16:01;5.57;;;3.22;;
36001;SDS011;22070;50.922;5.430;2022-12-20T17:18:27;4.33;;;2.83;;
36001;SDS011;22070;50.922;5.430;2022-12-20T17:20:52;3.22;;;2.80;;
36001;SDS011;22070;50.922;5.430;2022-12-20T17:23:18;9.40;;;4.07;;
36001;SDS011;22070;50.922;5.430;2022-12-20T17:25:43;5.57;;;3.57;;
36001;SDS011;22070;50.922;5.430;2022-12-20T17:28:09;6.60;;;2.77;;
36001;SDS011;22070;50.922;5.430;2022-12-20T17:30:35;6.28;;;3.47;;
36001;SDS011;22070;50.922;5.430;2022-12-20T17:33:01;7.05;;;3.85;;
36001;SDS011;22070;50.922;5.430;2022-12-20T17:35:28;6.53;;;3.35;;
36001;SDS011;22070;50.922;5.430;2022-12-20T17:37:55;7.75;;;3.60;;
36001;SDS011;22070;50.922;5.430;2022-12-20T17:40:25;6.82;;;3.40;;
36001;SDS011;22070;50.922;5.430;2022-12-20T17:42:51;6.13;;;3.65;;
36001;SDS011;22070;50.922;5.430;2022-12-20T17:45:27;9.20;;;3.90;;
36001;SDS011;22070;50.922;5.430;2022-12-20T17:47:56;7.65;;;3.58;;
36001;SDS011;22070;50.922;5.430;2022-12-20T17:50:23;7.95;;;4.07;;
36001;SDS011;22070;50.922;5.430;2022-12-20T17:52:49;8.00;;;4.40;;
36001;SDS011;22070;50.922;5.430;2022-12-20T17:55:18;9.55;;;4.28;;
36001;SDS011;22070;50.922;5.430;2022-12-20T17:57:48;7.75;;;4.20;;